This is the latest recevied weather packets stored in our database for station/object N0HOT. If no packets are shown the sender has not sent any weather packets the latest 1 day(s).
| Time | Temp. | Humidity | Pressure | Rain* | Wind** | Luminosity | Snow |
|---|---|---|---|---|---|---|---|
| 1836274784 | 17.78° C | 88% | 1015 hPa | 0 mm | 0 m/s | 0 W/m² | - |
| 1836274482 | 17.78° C | 88% | 1015 hPa | 0 mm | 0 m/s | 0 W/m² | - |
| 1836274336 | 17.78° C | 88% | 1015 hPa | 0 mm | 0 m/s | 0 W/m² | - |
| 1836274181 | 17.78° C | 88% | 1015 hPa | 0 mm | 0 m/s | 0 W/m² | - |
| 1836273880 | 17.78° C | 88% | 1015.3 hPa | 0 mm | 0 m/s | 0 W/m² | - |
| 1778035172 | 8.89° C | 38% | 1012.2 hPa | 0 mm | 0 m/s | 0 W/m² | - |
| 1778034869 | 8.89° C | 38% | 1012.2 hPa | 0 mm | 0 m/s | 0 W/m² | - |
| 1778034566 | 8.89° C | 39% | 1012.2 hPa | 0 mm | 0 m/s | 0 W/m² | - |
| 1778034264 | 8.89° C | 38% | 1012.2 hPa | 0 mm | 0 m/s | 0 W/m² | - |
| 1778033962 | 8.89° C | 38% | 1011.8 hPa | 0 mm | 1.79 m/s, 290° | 0 W/m² | - |
| 1778033659 | 8.89° C | 39% | 1011.8 hPa | 0 mm | 0.45 m/s, 272° | 0 W/m² | - |
| 1778033356 | 8.89° C | 40% | 1011.8 hPa | 0 mm | 0 m/s | 0 W/m² | - |
| 1778033054 | 8.89° C | 39% | 1011.8 hPa | 0 mm | 0 m/s | 0 W/m² | - |
| 1778032750 | 8.89° C | 39% | 1011.5 hPa | 0 mm | 0.45 m/s, 305° | 0 W/m² | - |
| 1778032448 | 9.44° C | 38% | 1011.5 hPa | 0 mm | 0.45 m/s, 296° | 0 W/m² | - |
| 1778032145 | 9.44° C | 40% | 1011.1 hPa | 0 mm | 0 m/s | 0 W/m² | - |
| 1778031841 | 9.44° C | 36% | 1011.5 hPa | 0 mm | 0 m/s | 0 W/m² | - |
| 1778031538 | 9.44° C | 35% | 1011.1 hPa | 0 mm | 0 m/s | 0 W/m² | - |
| 1778031236 | 9.44° C | 35% | 1011.5 hPa | 0 mm | 0 m/s | 0 W/m² | - |
| 1778030932 | 9.44° C | 36% | 1011.1 hPa | 0 mm | 0.45 m/s, 251° | 0 W/m² | - |
| 1778030629 | 9.44° C | 35% | 1011.1 hPa | 0 mm | 0 m/s | 0 W/m² | - |
| 1778030326 | 9.44° C | 35% | 1011.1 hPa | 0 mm | 0 m/s | 0 W/m² | - |
| 1778030023 | 10° C | 34% | 1011.1 hPa | 0 mm | 0 m/s | 2 W/m² | - |
| 1778029720 | 10° C | 34% | 1011.1 hPa | 0 mm | 0.45 m/s, 337° | 3 W/m² | - |
| 1778029418 | 10° C | 34% | 1010.8 hPa | 0 mm | 0 m/s | 5 W/m² | - |
* Rain latest hour (hover to see other rain measurements)
** Current wind speed in m/s (hover to see current wind gust speed)